sensor_id;sensor_type;location;lat;lon;timestamp;P1;durP1;ratioP1;P2;durP2;ratioP2
37955;SDS011;23776;51.592;7.180;2023-07-22T00:00:27;16.85;;;8.38;;
37955;SDS011;23776;51.592;7.180;2023-07-22T00:02:53;15.27;;;7.85;;
37955;SDS011;23776;51.592;7.180;2023-07-22T00:05:19;14.50;;;7.85;;
37955;SDS011;23776;51.592;7.180;2023-07-22T00:07:48;13.82;;;7.57;;
37955;SDS011;23776;51.592;7.180;2023-07-22T00:10:17;17.80;;;7.93;;
37955;SDS011;23776;51.592;7.180;2023-07-22T00:12:43;17.02;;;8.15;;
37955;SDS011;23776;51.592;7.180;2023-07-22T00:15:09;14.52;;;7.38;;
37955;SDS011;23776;51.592;7.180;2023-07-22T00:17:37;17.23;;;8.27;;
37955;SDS011;23776;51.592;7.180;2023-07-22T00:20:03;16.02;;;8.48;;
37955;SDS011;23776;51.592;7.180;2023-07-22T00:22:30;15.18;;;8.73;;
37955;SDS011;23776;51.592;7.180;2023-07-22T00:24:56;17.35;;;8.00;;
37955;SDS011;23776;51.592;7.180;2023-07-22T00:27:24;18.60;;;8.45;;
37955;SDS011;23776;51.592;7.180;2023-07-22T00:29:50;12.80;;;7.47;;
37955;SDS011;23776;51.592;7.180;2023-07-22T00:32:16;16.25;;;8.65;;
37955;SDS011;23776;51.592;7.180;2023-07-22T00:34:41;21.70;;;8.73;;
37955;SDS011;23776;51.592;7.180;2023-07-22T00:37:07;13.13;;;7.85;;
37955;SDS011;23776;51.592;7.180;2023-07-22T00:39:32;17.30;;;9.63;;
37955;SDS011;23776;51.592;7.180;2023-07-22T00:41:58;18.52;;;8.60;;
37955;SDS011;23776;51.592;7.180;2023-07-22T00:44:23;16.10;;;8.18;;
37955;SDS011;23776;51.592;7.180;2023-07-22T00:46:49;17.38;;;8.75;;
37955;SDS011;23776;51.592;7.180;2023-07-22T00:49:19;13.25;;;8.20;;
37955;SDS011;23776;51.592;7.180;2023-07-22T00:51:44;18.92;;;9.38;;
37955;SDS011;23776;51.592;7.180;2023-07-22T00:54:10;16.75;;;8.82;;
37955;SDS011;23776;51.592;7.180;2023-07-22T00:56:36;19.27;;;9.55;;
37955;SDS011;23776;51.592;7.180;2023-07-22T00:59:02;19.77;;;9.70;;
37955;SDS011;23776;51.592;7.180;2023-07-22T01:01:27;16.92;;;9.45;;
37955;SDS011;23776;51.592;7.180;2023-07-22T01:03:53;19.88;;;8.93;;
37955;SDS011;23776;51.592;7.180;2023-07-22T01:06:19;16.17;;;9.18;;
37955;SDS011;23776;51.592;7.180;2023-07-22T01:08:45;20.33;;;9.82;;
37955;SDS011;23776;51.592;7.180;2023-07-22T01:11:11;16.58;;;8.80;;
37955;SDS011;23776;51.592;7.180;2023-07-22T01:13:37;15.90;;;9.02;;
37955;SDS011;23776;51.592;7.180;2023-07-22T01:16:04;17.48;;;8.38;;
37955;SDS011;23776;51.592;7.180;2023-07-22T01:18:31;18.90;;;9.23;;
37955;SDS011;23776;51.592;7.180;2023-07-22T01:20:58;20.58;;;9.70;;
37955;SDS011;23776;51.592;7.180;2023-07-22T01:23:24;18.65;;;8.05;;
37955;SDS011;23776;51.592;7.180;2023-07-22T01:25:49;19.75;;;9.82;;
37955;SDS011;23776;51.592;7.180;2023-07-22T01:28:16;17.40;;;9.27;;
37955;SDS011;23776;51.592;7.180;2023-07-22T01:30:41;19.55;;;9.27;;
37955;SDS011;23776;51.592;7.180;2023-07-22T01:33:07;20.85;;;10.45;;
37955;SDS011;23776;51.592;7.180;2023-07-22T01:35:33;19.60;;;10.07;;
37955;SDS011;23776;51.592;7.180;2023-07-22T01:37:59;18.38;;;9.63;;
37955;SDS011;23776;51.592;7.180;2023-07-22T01:40:25;14.60;;;8.30;;
37955;SDS011;23776;51.592;7.180;2023-07-22T01:42:51;16.98;;;9.55;;
37955;SDS011;23776;51.592;7.180;2023-07-22T01:45:16;13.63;;;8.32;;
37955;SDS011;23776;51.592;7.180;2023-07-22T01:47:42;20.98;;;9.85;;
37955;SDS011;23776;51.592;7.180;2023-07-22T01:50:08;16.33;;;8.90;;
37955;SDS011;23776;51.592;7.180;2023-07-22T01:52:34;17.65;;;9.20;;
37955;SDS011;23776;51.592;7.180;2023-07-22T01:55:00;19.33;;;10.57;;
37955;SDS011;23776;51.592;7.180;2023-07-22T01:57:27;19.63;;;9.13;;
37955;SDS011;23776;51.592;7.180;2023-07-22T01:59:52;14.95;;;8.23;;
37955;SDS011;23776;51.592;7.180;2023-07-22T02:02:18;17.42;;;10.10;;
37955;SDS011;23776;51.592;7.180;2023-07-22T02:04:45;17.08;;;9.02;;
37955;SDS011;23776;51.592;7.180;2023-07-22T02:07:10;15.82;;;8.25;;
37955;SDS011;23776;51.592;7.180;2023-07-22T02:09:36;16.02;;;8.82;;
37955;SDS011;23776;51.592;7.180;2023-07-22T02:12:02;15.82;;;9.07;;
37955;SDS011;23776;51.592;7.180;2023-07-22T02:14:27;21.63;;;8.77;;
37955;SDS011;23776;51.592;7.180;2023-07-22T02:16:53;16.05;;;9.55;;
37955;SDS011;23776;51.592;7.180;2023-07-22T02:19:18;18.45;;;8.57;;
37955;SDS011;23776;51.592;7.180;2023-07-22T02:21:44;15.90;;;7.72;;
37955;SDS011;23776;51.592;7.180;2023-07-22T02:24:10;17.08;;;8.63;;
37955;SDS011;23776;51.592;7.180;2023-07-22T02:26:35;14.23;;;7.93;;
37955;SDS011;23776;51.592;7.180;2023-07-22T02:29:01;14.30;;;7.70;;
37955;SDS011;23776;51.592;7.180;2023-07-22T02:31:27;17.92;;;8.10;;
37955;SDS011;23776;51.592;7.180;2023-07-22T02:33:53;18.00;;;7.97;;
37955;SDS011;23776;51.592;7.180;2023-07-22T02:36:18;13.88;;;7.53;;
37955;SDS011;23776;51.592;7.180;2023-07-22T02:38:44;15.93;;;7.93;;
37955;SDS011;23776;51.592;7.180;2023-07-22T02:41:10;17.77;;;8.85;;
37955;SDS011;23776;51.592;7.180;2023-07-22T02:43:35;14.20;;;8.15;;
37955;SDS011;23776;51.592;7.180;2023-07-22T02:46:01;16.13;;;7.70;;
37955;SDS011;23776;51.592;7.180;2023-07-22T02:48:28;18.63;;;8.65;;
37955;SDS011;23776;51.592;7.180;2023-07-22T02:50:54;14.65;;;8.60;;
37955;SDS011;23776;51.592;7.180;2023-07-22T02:53:20;16.20;;;8.20;;
37955;SDS011;23776;51.592;7.180;2023-07-22T02:55:46;14.65;;;8.00;;
37955;SDS011;23776;51.592;7.180;2023-07-22T02:58:12;17.52;;;7.47;;
37955;SDS011;23776;51.592;7.180;2023-07-22T03:00:37;16.92;;;8.50;;
37955;SDS011;23776;51.592;7.180;2023-07-22T03:03:03;15.60;;;8.20;;
37955;SDS011;23776;51.592;7.180;2023-07-22T03:05:30;14.70;;;7.07;;
37955;SDS011;23776;51.592;7.180;2023-07-22T03:07:57;20.27;;;8.02;;
37955;SDS011;23776;51.592;7.180;2023-07-22T03:10:24;18.27;;;8.50;;
37955;SDS011;23776;51.592;7.180;2023-07-22T03:12:54;15.95;;;7.68;;
37955;SDS011;23776;51.592;7.180;2023-07-22T03:15:24;18.27;;;8.93;;
37955;SDS011;23776;51.592;7.180;2023-07-22T03:17:51;15.15;;;7.53;;
37955;SDS011;23776;51.592;7.180;2023-07-22T03:20:17;16.58;;;8.90;;
37955;SDS011;23776;51.592;7.180;2023-07-22T03:22:44;18.85;;;8.93;;
37955;SDS011;23776;51.592;7.180;2023-07-22T03:25:11;13.77;;;8.18;;
37955;SDS011;23776;51.592;7.180;2023-07-22T03:27:37;17.15;;;8.45;;
37955;SDS011;23776;51.592;7.180;2023-07-22T03:30:04;16.33;;;8.60;;
37955;SDS011;23776;51.592;7.180;2023-07-22T03:32:33;13.60;;;7.68;;
37955;SDS011;23776;51.592;7.180;2023-07-22T03:34:59;13.40;;;7.80;;
37955;SDS011;23776;51.592;7.180;2023-07-22T03:37:26;13.80;;;7.22;;
37955;SDS011;23776;51.592;7.180;2023-07-22T03:39:52;16.20;;;8.70;;
37955;SDS011;23776;51.592;7.180;2023-07-22T03:42:18;13.07;;;7.72;;
37955;SDS011;23776;51.592;7.180;2023-07-22T03:44:44;14.40;;;8.10;;
37955;SDS011;23776;51.592;7.180;2023-07-22T03:47:09;13.77;;;8.10;;
37955;SDS011;23776;51.592;7.180;2023-07-22T03:49:35;13.65;;;7.95;;
37955;SDS011;23776;51.592;7.180;2023-07-22T03:52:01;13.10;;;7.93;;
37955;SDS011;23776;51.592;7.180;2023-07-22T03:54:26;13.18;;;7.40;;
37955;SDS011;23776;51.592;7.180;2023-07-22T03:56:52;13.57;;;7.55;;
37955;SDS011;23776;51.592;7.180;2023-07-22T03:59:17;15.85;;;7.78;;
37955;SDS011;23776;51.592;7.180;2023-07-22T04:01:43;14.93;;;7.13;;
37955;SDS011;23776;51.592;7.180;2023-07-22T04:04:08;20.77;;;7.80;;
37955;SDS011;23776;51.592;7.180;2023-07-22T04:06:34;15.27;;;7.50;;
37955;SDS011;23776;51.592;7.180;2023-07-22T04:08:59;12.85;;;6.72;;
37955;SDS011;23776;51.592;7.180;2023-07-22T04:11:26;18.15;;;7.95;;
37955;SDS011;23776;51.592;7.180;2023-07-22T04:13:52;13.40;;;7.55;;
37955;SDS011;23776;51.592;7.180;2023-07-22T04:16:18;13.70;;;6.90;;
37955;SDS011;23776;51.592;7.180;2023-07-22T04:18:43;16.63;;;7.85;;
37955;SDS011;23776;51.592;7.180;2023-07-22T04:21:09;14.80;;;7.68;;
37955;SDS011;23776;51.592;7.180;2023-07-22T04:23:34;18.23;;;8.07;;
37955;SDS011;23776;51.592;7.180;2023-07-22T04:26:02;12.68;;;7.30;;
37955;SDS011;23776;51.592;7.180;2023-07-22T04:28:30;13.70;;;7.00;;
37955;SDS011;23776;51.592;7.180;2023-07-22T04:30:56;13.50;;;7.50;;
37955;SDS011;23776;51.592;7.180;2023-07-22T04:33:23;13.55;;;7.50;;
37955;SDS011;23776;51.592;7.180;2023-07-22T04:35:49;12.82;;;7.28;;
37955;SDS011;23776;51.592;7.180;2023-07-22T04:38:17;15.05;;;7.15;;
37955;SDS011;23776;51.592;7.180;2023-07-22T04:40:43;14.50;;;6.88;;
37955;SDS011;23776;51.592;7.180;2023-07-22T04:43:09;13.10;;;7.05;;
37955;SDS011;23776;51.592;7.180;2023-07-22T04:45:35;11.38;;;6.90;;
37955;SDS011;23776;51.592;7.180;2023-07-22T04:48:01;15.82;;;7.38;;
37955;SDS011;23776;51.592;7.180;2023-07-22T04:50:27;16.45;;;7.63;;
37955;SDS011;23776;51.592;7.180;2023-07-22T04:52:53;20.15;;;7.32;;
37955;SDS011;23776;51.592;7.180;2023-07-22T04:55:19;17.45;;;7.78;;
37955;SDS011;23776;51.592;7.180;2023-07-22T04:57:45;18.83;;;7.70;;
37955;SDS011;23776;51.592;7.180;2023-07-22T05:00:11;15.98;;;6.53;;
37955;SDS011;23776;51.592;7.180;2023-07-22T05:02:44;15.63;;;7.65;;
37955;SDS011;23776;51.592;7.180;2023-07-22T05:05:15;16.23;;;7.95;;
37955;SDS011;23776;51.592;7.180;2023-07-22T05:07:41;14.48;;;7.28;;
37955;SDS011;23776;51.592;7.180;2023-07-22T05:10:07;16.90;;;7.85;;
37955;SDS011;23776;51.592;7.180;2023-07-22T05:12:37;15.30;;;7.75;;
37955;SDS011;23776;51.592;7.180;2023-07-22T05:15:03;14.98;;;7.47;;
37955;SDS011;23776;51.592;7.180;2023-07-22T05:17:30;17.83;;;8.35;;
37955;SDS011;23776;51.592;7.180;2023-07-22T05:19:56;12.95;;;7.32;;
37955;SDS011;23776;51.592;7.180;2023-07-22T05:22:22;15.25;;;7.80;;
37955;SDS011;23776;51.592;7.180;2023-07-22T05:24:48;14.95;;;7.47;;
37955;SDS011;23776;51.592;7.180;2023-07-22T05:27:13;17.20;;;7.93;;
37955;SDS011;23776;51.592;7.180;2023-07-22T05:29:39;17.35;;;8.20;;
37955;SDS011;23776;51.592;7.180;2023-07-22T05:32:05;16.08;;;8.18;;
37955;SDS011;23776;51.592;7.180;2023-07-22T05:34:31;15.77;;;7.25;;
37955;SDS011;23776;51.592;7.180;2023-07-22T05:36:56;15.90;;;7.25;;
37955;SDS011;23776;51.592;7.180;2023-07-22T05:39:22;15.82;;;8.27;;
37955;SDS011;23776;51.592;7.180;2023-07-22T05:41:48;16.73;;;7.80;;
37955;SDS011;23776;51.592;7.180;2023-07-22T05:44:13;18.63;;;8.60;;
37955;SDS011;23776;51.592;7.180;2023-07-22T05:46:39;15.60;;;7.88;;
37955;SDS011;23776;51.592;7.180;2023-07-22T05:49:04;12.93;;;7.30;;
37955;SDS011;23776;51.592;7.180;2023-07-22T05:51:30;15.05;;;7.13;;
37955;SDS011;23776;51.592;7.180;2023-07-22T05:53:56;14.85;;;7.90;;
37955;SDS011;23776;51.592;7.180;2023-07-22T05:56:22;14.60;;;7.68;;
37955;SDS011;23776;51.592;7.180;2023-07-22T05:58:48;17.08;;;7.65;;
37955;SDS011;23776;51.592;7.180;2023-07-22T06:01:14;19.05;;;7.28;;
37955;SDS011;23776;51.592;7.180;2023-07-22T06:03:39;14.40;;;6.95;;
37955;SDS011;23776;51.592;7.180;2023-07-22T06:06:05;15.65;;;8.50;;
37955;SDS011;23776;51.592;7.180;2023-07-22T06:08:31;15.73;;;7.55;;
37955;SDS011;23776;51.592;7.180;2023-07-22T06:10:56;18.38;;;6.95;;
37955;SDS011;23776;51.592;7.180;2023-07-22T06:13:22;19.42;;;7.82;;
37955;SDS011;23776;51.592;7.180;2023-07-22T06:15:48;14.85;;;7.43;;
37955;SDS011;23776;51.592;7.180;2023-07-22T06:18:13;15.52;;;7.32;;
37955;SDS011;23776;51.592;7.180;2023-07-22T06:20:39;14.52;;;7.10;;
37955;SDS011;23776;51.592;7.180;2023-07-22T06:23:04;17.00;;;7.05;;
37955;SDS011;23776;51.592;7.180;2023-07-22T06:25:31;12.15;;;6.65;;
37955;SDS011;23776;51.592;7.180;2023-07-22T06:27:56;17.30;;;7.15;;
37955;SDS011;23776;51.592;7.180;2023-07-22T06:30:22;16.25;;;7.18;;
37955;SDS011;23776;51.592;7.180;2023-07-22T06:32:47;17.83;;;7.35;;
37955;SDS011;23776;51.592;7.180;2023-07-22T06:35:13;14.38;;;7.32;;
37955;SDS011;23776;51.592;7.180;2023-07-22T06:37:39;17.92;;;8.18;;
37955;SDS011;23776;51.592;7.180;2023-07-22T06:40:05;15.43;;;7.55;;
37955;SDS011;23776;51.592;7.180;2023-07-22T06:42:31;11.55;;;6.70;;
37955;SDS011;23776;51.592;7.180;2023-07-22T06:44:57;15.70;;;7.70;;
37955;SDS011;23776;51.592;7.180;2023-07-22T06:47:23;12.85;;;7.82;;
37955;SDS011;23776;51.592;7.180;2023-07-22T06:49:49;19.77;;;8.13;;
37955;SDS011;23776;51.592;7.180;2023-07-22T06:52:15;20.98;;;8.52;;
37955;SDS011;23776;51.592;7.180;2023-07-22T06:54:41;14.90;;;7.70;;
37955;SDS011;23776;51.592;7.180;2023-07-22T06:57:07;14.95;;;7.93;;
37955;SDS011;23776;51.592;7.180;2023-07-22T06:59:33;17.55;;;7.95;;
37955;SDS011;23776;51.592;7.180;2023-07-22T07:01:58;15.73;;;8.48;;
37955;SDS011;23776;51.592;7.180;2023-07-22T07:04:24;16.20;;;8.73;;
37955;SDS011;23776;51.592;7.180;2023-07-22T07:06:50;19.23;;;8.55;;
37955;SDS011;23776;51.592;7.180;2023-07-22T07:09:16;13.77;;;7.55;;
37955;SDS011;23776;51.592;7.180;2023-07-22T07:11:41;18.23;;;8.77;;
37955;SDS011;23776;51.592;7.180;2023-07-22T07:14:07;20.13;;;9.27;;
37955;SDS011;23776;51.592;7.180;2023-07-22T07:16:32;19.75;;;8.57;;
37955;SDS011;23776;51.592;7.180;2023-07-22T07:18:59;17.00;;;8.75;;
37955;SDS011;23776;51.592;7.180;2023-07-22T07:21:25;15.75;;;7.90;;
37955;SDS011;23776;51.592;7.180;2023-07-22T07:23:52;16.38;;;8.68;;
37955;SDS011;23776;51.592;7.180;2023-07-22T07:26:18;19.13;;;9.68;;
37955;SDS011;23776;51.592;7.180;2023-07-22T07:28:45;14.80;;;7.65;;
37955;SDS011;23776;51.592;7.180;2023-07-22T07:31:11;17.23;;;8.38;;
37955;SDS011;23776;51.592;7.180;2023-07-22T07:33:37;14.70;;;8.23;;
37955;SDS011;23776;51.592;7.180;2023-07-22T07:36:02;15.50;;;7.75;;
37955;SDS011;23776;51.592;7.180;2023-07-22T07:38:29;13.52;;;7.63;;
37955;SDS011;23776;51.592;7.180;2023-07-22T07:40:58;18.23;;;8.13;;
37955;SDS011;23776;51.592;7.180;2023-07-22T07:43:25;17.73;;;8.95;;
37955;SDS011;23776;51.592;7.180;2023-07-22T07:46:11;14.90;;;7.70;;
37955;SDS011;23776;51.592;7.180;2023-07-22T07:48:47;12.27;;;7.18;;
37955;SDS011;23776;51.592;7.180;2023-07-22T07:51:24;13.55;;;7.47;;
37955;SDS011;23776;51.592;7.180;2023-07-22T07:53:52;15.07;;;7.90;;
37955;SDS011;23776;51.592;7.180;2023-07-22T07:56:19;12.20;;;7.10;;
37955;SDS011;23776;51.592;7.180;2023-07-22T07:58:47;13.35;;;7.22;;
37955;SDS011;23776;51.592;7.180;2023-07-22T08:01:14;13.63;;;7.50;;
37955;SDS011;23776;51.592;7.180;2023-07-22T08:03:40;12.75;;;7.68;;
37955;SDS011;23776;51.592;7.180;2023-07-22T08:06:07;16.27;;;7.50;;
37955;SDS011;23776;51.592;7.180;2023-07-22T08:08:33;11.35;;;6.93;;
37955;SDS011;23776;51.592;7.180;2023-07-22T08:11:06;14.88;;;7.68;;
37955;SDS011;23776;51.592;7.180;2023-07-22T08:13:33;13.77;;;6.90;;
37955;SDS011;23776;51.592;7.180;2023-07-22T08:16:03;13.20;;;6.93;;
37955;SDS011;23776;51.592;7.180;2023-07-22T08:18:30;18.92;;;7.85;;
37955;SDS011;23776;51.592;7.180;2023-07-22T08:20:57;14.90;;;7.28;;
37955;SDS011;23776;51.592;7.180;2023-07-22T08:23:22;17.42;;;7.88;;
37955;SDS011;23776;51.592;7.180;2023-07-22T08:25:48;12.10;;;6.65;;
37955;SDS011;23776;51.592;7.180;2023-07-22T08:28:15;13.85;;;6.93;;
37955;SDS011;23776;51.592;7.180;2023-07-22T08:30:41;18.75;;;7.78;;
37955;SDS011;23776;51.592;7.180;2023-07-22T08:33:08;17.33;;;8.02;;
37955;SDS011;23776;51.592;7.180;2023-07-22T08:35:34;14.13;;;8.18;;
37955;SDS011;23776;51.592;7.180;2023-07-22T08:38:01;14.98;;;7.63;;
37955;SDS011;23776;51.592;7.180;2023-07-22T08:40:27;14.75;;;7.22;;
37955;SDS011;23776;51.592;7.180;2023-07-22T08:42:58;16.35;;;7.78;;
37955;SDS011;23776;51.592;7.180;2023-07-22T08:45:24;18.23;;;8.40;;
37955;SDS011;23776;51.592;7.180;2023-07-22T08:47:54;14.70;;;7.28;;
37955;SDS011;23776;51.592;7.180;2023-07-22T08:50:22;16.40;;;6.68;;
37955;SDS011;23776;51.592;7.180;2023-07-22T08:52:55;15.27;;;7.20;;
37955;SDS011;23776;51.592;7.180;2023-07-22T08:55:22;12.27;;;7.30;;
37955;SDS011;23776;51.592;7.180;2023-07-22T08:57:48;11.93;;;7.32;;
37955;SDS011;23776;51.592;7.180;2023-07-22T09:00:15;13.82;;;6.40;;
37955;SDS011;23776;51.592;7.180;2023-07-22T09:02:41;13.50;;;7.63;;
37955;SDS011;23776;51.592;7.180;2023-07-22T09:05:07;15.32;;;7.05;;
37955;SDS011;23776;51.592;7.180;2023-07-22T09:07:34;13.18;;;6.90;;
37955;SDS011;23776;51.592;7.180;2023-07-22T09:10:01;12.32;;;6.28;;
37955;SDS011;23776;51.592;7.180;2023-07-22T09:12:28;10.63;;;5.95;;
37955;SDS011;23776;51.592;7.180;2023-07-22T09:14:54;13.02;;;6.45;;
37955;SDS011;23776;51.592;7.180;2023-07-22T09:17:22;11.70;;;6.40;;
37955;SDS011;23776;51.592;7.180;2023-07-22T09:19:51;13.15;;;6.18;;
37955;SDS011;23776;51.592;7.180;2023-07-22T09:22:18;11.25;;;5.93;;
37955;SDS011;23776;51.592;7.180;2023-07-22T09:24:49;12.48;;;6.43;;
37955;SDS011;23776;51.592;7.180;2023-07-22T09:27:15;8.85;;;5.53;;
37955;SDS011;23776;51.592;7.180;2023-07-22T09:29:40;8.73;;;5.05;;
37955;SDS011;23776;51.592;7.180;2023-07-22T09:32:06;12.38;;;5.50;;
37955;SDS011;23776;51.592;7.180;2023-07-22T09:34:32;9.13;;;5.43;;
37955;SDS011;23776;51.592;7.180;2023-07-22T09:36:58;10.88;;;5.60;;
37955;SDS011;23776;51.592;7.180;2023-07-22T09:39:29;8.27;;;5.55;;
37955;SDS011;23776;51.592;7.180;2023-07-22T09:41:55;8.85;;;5.03;;
37955;SDS011;23776;51.592;7.180;2023-07-22T09:44:28;10.48;;;5.47;;
37955;SDS011;23776;51.592;7.180;2023-07-22T09:46:57;21.05;;;6.50;;
37955;SDS011;23776;51.592;7.180;2023-07-22T09:49:23;13.32;;;6.03;;
37955;SDS011;23776;51.592;7.180;2023-07-22T09:51:50;13.75;;;5.45;;
37955;SDS011;23776;51.592;7.180;2023-07-22T09:54:17;20.55;;;6.97;;
37955;SDS011;23776;51.592;7.180;2023-07-22T09:56:49;12.68;;;6.85;;
37955;SDS011;23776;51.592;7.180;2023-07-22T09:59:15;15.85;;;6.22;;
37955;SDS011;23776;51.592;7.180;2023-07-22T10:01:43;13.85;;;5.70;;
37955;SDS011;23776;51.592;7.180;2023-07-22T10:04:12;14.02;;;5.65;;
37955;SDS011;23776;51.592;7.180;2023-07-22T10:06:40;12.70;;;5.82;;
37955;SDS011;23776;51.592;7.180;2023-07-22T10:09:07;10.57;;;4.90;;
37955;SDS011;23776;51.592;7.180;2023-07-22T10:11:36;9.95;;;6.13;;
37955;SDS011;23776;51.592;7.180;2023-07-22T10:14:04;8.95;;;5.03;;
37955;SDS011;23776;51.592;7.180;2023-07-22T10:16:30;10.15;;;4.90;;
37955;SDS011;23776;51.592;7.180;2023-07-22T10:18:56;10.25;;;5.05;;
37955;SDS011;23776;51.592;7.180;2023-07-22T10:21:26;7.00;;;4.63;;
37955;SDS011;23776;51.592;7.180;2023-07-22T10:23:53;12.38;;;5.18;;
37955;SDS011;23776;51.592;7.180;2023-07-22T10:26:20;9.57;;;5.35;;
37955;SDS011;23776;51.592;7.180;2023-07-22T10:28:46;8.02;;;5.38;;
37955;SDS011;23776;51.592;7.180;2023-07-22T10:31:15;7.15;;;4.47;;
37955;SDS011;23776;51.592;7.180;2023-07-22T10:33:44;9.85;;;4.95;;
37955;SDS011;23776;51.592;7.180;2023-07-22T10:36:15;9.65;;;5.13;;
37955;SDS011;23776;51.592;7.180;2023-07-22T10:38:41;8.07;;;4.95;;
37955;SDS011;23776;51.592;7.180;2023-07-22T10:41:11;8.60;;;4.85;;
37955;SDS011;23776;51.592;7.180;2023-07-22T10:43:38;10.10;;;4.53;;
37955;SDS011;23776;51.592;7.180;2023-07-22T10:46:06;7.47;;;5.03;;
37955;SDS011;23776;51.592;7.180;2023-07-22T10:48:35;10.98;;;5.30;;
37955;SDS011;23776;51.592;7.180;2023-07-22T10:51:12;8.35;;;4.80;;
37955;SDS011;23776;51.592;7.180;2023-07-22T10:53:43;10.30;;;5.22;;
37955;SDS011;23776;51.592;7.180;2023-07-22T10:56:21;10.73;;;4.50;;
37955;SDS011;23776;51.592;7.180;2023-07-22T11:12:01;10.23;;;4.35;;
37955;SDS011;23776;51.592;7.180;2023-07-22T11:14:27;8.23;;;4.10;;
37955;SDS011;23776;51.592;7.180;2023-07-22T11:16:58;7.55;;;4.03;;
37955;SDS011;23776;51.592;7.180;2023-07-22T11:19:26;8.13;;;3.50;;
37955;SDS011;23776;51.592;7.180;2023-07-22T11:21:53;6.88;;;3.92;;
37955;SDS011;23776;51.592;7.180;2023-07-22T11:24:19;10.60;;;4.03;;
37955;SDS011;23776;51.592;7.180;2023-07-22T11:26:46;6.90;;;3.95;;
37955;SDS011;23776;51.592;7.180;2023-07-22T11:29:13;6.55;;;3.83;;
37955;SDS011;23776;51.592;7.180;2023-07-22T11:31:40;7.28;;;3.70;;
37955;SDS011;23776;51.592;7.180;2023-07-22T11:34:14;5.47;;;3.00;;
37955;SDS011;23776;51.592;7.180;2023-07-22T11:36:41;6.63;;;3.17;;
37955;SDS011;23776;51.592;7.180;2023-07-22T11:39:08;5.90;;;2.95;;
37955;SDS011;23776;51.592;7.180;2023-07-22T11:41:41;5.00;;;3.05;;
37955;SDS011;23776;51.592;7.180;2023-07-22T11:44:08;6.15;;;3.40;;
37955;SDS011;23776;51.592;7.180;2023-07-22T11:46:54;7.38;;;2.83;;
37955;SDS011;23776;51.592;7.180;2023-07-22T11:51:59;6.55;;;2.53;;
37955;SDS011;23776;51.592;7.180;2023-07-22T11:54:25;6.50;;;2.97;;
37955;SDS011;23776;51.592;7.180;2023-07-22T11:56:51;8.35;;;3.00;;
37955;SDS011;23776;51.592;7.180;2023-07-22T11:59:17;5.65;;;3.10;;
37955;SDS011;23776;51.592;7.180;2023-07-22T12:01:57;6.38;;;2.95;;
37955;SDS011;23776;51.592;7.180;2023-07-22T12:04:25;4.47;;;2.85;;
37955;SDS011;23776;51.592;7.180;2023-07-22T12:06:50;6.03;;;3.00;;
37955;SDS011;23776;51.592;7.180;2023-07-22T12:09:16;3.97;;;2.65;;
37955;SDS011;23776;51.592;7.180;2023-07-22T12:11:41;5.40;;;2.50;;
37955;SDS011;23776;51.592;7.180;2023-07-22T12:14:07;9.82;;;3.47;;
37955;SDS011;23776;51.592;7.180;2023-07-22T12:16:38;6.15;;;2.63;;
37955;SDS011;23776;51.592;7.180;2023-07-22T12:19:05;7.13;;;2.38;;
37955;SDS011;23776;51.592;7.180;2023-07-22T12:21:32;5.03;;;2.65;;
37955;SDS011;23776;51.592;7.180;2023-07-22T12:23:58;8.43;;;2.75;;
37955;SDS011;23776;51.592;7.180;2023-07-22T12:26:24;4.50;;;2.25;;
37955;SDS011;23776;51.592;7.180;2023-07-22T12:28:50;9.40;;;2.67;;
37955;SDS011;23776;51.592;7.180;2023-07-22T12:31:16;4.47;;;2.85;;
37955;SDS011;23776;51.592;7.180;2023-07-22T12:33:42;5.97;;;2.53;;
37955;SDS011;23776;51.592;7.180;2023-07-22T12:36:07;4.38;;;2.58;;
37955;SDS011;23776;51.592;7.180;2023-07-22T12:38:33;3.50;;;2.53;;
37955;SDS011;23776;51.592;7.180;2023-07-22T12:40:59;7.93;;;3.83;;
37955;SDS011;23776;51.592;7.180;2023-07-22T12:43:25;3.95;;;2.33;;
37955;SDS011;23776;51.592;7.180;2023-07-22T12:45:51;3.88;;;2.50;;
37955;SDS011;23776;51.592;7.180;2023-07-22T12:48:17;5.60;;;2.90;;
37955;SDS011;23776;51.592;7.180;2023-07-22T12:50:43;3.88;;;2.38;;
37955;SDS011;23776;51.592;7.180;2023-07-22T12:53:09;9.05;;;2.90;;
37955;SDS011;23776;51.592;7.180;2023-07-22T12:55:34;7.82;;;2.40;;
37955;SDS011;23776;51.592;7.180;2023-07-22T12:58:00;6.15;;;2.15;;
37955;SDS011;23776;51.592;7.180;2023-07-22T13:00:26;3.83;;;2.22;;
37955;SDS011;23776;51.592;7.180;2023-07-22T13:02:52;4.45;;;2.03;;
37955;SDS011;23776;51.592;7.180;2023-07-22T13:05:18;9.25;;;2.40;;
37955;SDS011;23776;51.592;7.180;2023-07-22T13:07:44;4.57;;;1.90;;
37955;SDS011;23776;51.592;7.180;2023-07-22T13:10:10;4.13;;;2.55;;
37955;SDS011;23776;51.592;7.180;2023-07-22T13:12:37;5.40;;;2.60;;
37955;SDS011;23776;51.592;7.180;2023-07-22T13:15:04;3.70;;;1.98;;
37955;SDS011;23776;51.592;7.180;2023-07-22T13:17:30;4.47;;;2.13;;
37955;SDS011;23776;51.592;7.180;2023-07-22T13:19:56;4.13;;;1.90;;
37955;SDS011;23776;51.592;7.180;2023-07-22T13:22:22;5.18;;;2.50;;
37955;SDS011;23776;51.592;7.180;2023-07-22T13:24:48;7.38;;;3.15;;
37955;SDS011;23776;51.592;7.180;2023-07-22T13:27:13;52.78;;;33.47;;
37955;SDS011;23776;51.592;7.180;2023-07-22T13:29:39;8.25;;;4.55;;
37955;SDS011;23776;51.592;7.180;2023-07-22T13:32:04;8.93;;;4.60;;
37955;SDS011;23776;51.592;7.180;2023-07-22T13:34:31;5.55;;;2.88;;
37955;SDS011;23776;51.592;7.180;2023-07-22T13:36:57;4.68;;;3.15;;
37955;SDS011;23776;51.592;7.180;2023-07-22T13:39:22;4.90;;;2.80;;
37955;SDS011;23776;51.592;7.180;2023-07-22T13:41:48;6.90;;;3.28;;
37955;SDS011;23776;51.592;7.180;2023-07-22T13:44:14;4.80;;;2.88;;
37955;SDS011;23776;51.592;7.180;2023-07-22T13:46:40;6.35;;;3.58;;
37955;SDS011;23776;51.592;7.180;2023-07-22T13:49:05;6.72;;;3.00;;
37955;SDS011;23776;51.592;7.180;2023-07-22T13:51:31;6.63;;;2.97;;
37955;SDS011;23776;51.592;7.180;2023-07-22T13:53:56;4.88;;;2.67;;
37955;SDS011;23776;51.592;7.180;2023-07-22T13:56:23;5.70;;;3.60;;
37955;SDS011;23776;51.592;7.180;2023-07-22T13:58:49;5.13;;;2.40;;
37955;SDS011;23776;51.592;7.180;2023-07-22T14:01:14;3.78;;;2.75;;
37955;SDS011;23776;51.592;7.180;2023-07-22T14:03:40;4.40;;;2.90;;
37955;SDS011;23776;51.592;7.180;2023-07-22T14:06:06;3.60;;;2.33;;
37955;SDS011;23776;51.592;7.180;2023-07-22T14:08:33;6.65;;;2.42;;
37955;SDS011;23776;51.592;7.180;2023-07-22T14:10:58;7.38;;;2.38;;
37955;SDS011;23776;51.592;7.180;2023-07-22T14:13:24;6.90;;;2.83;;
37955;SDS011;23776;51.592;7.180;2023-07-22T14:15:50;6.70;;;2.70;;
37955;SDS011;23776;51.592;7.180;2023-07-22T14:18:15;5.60;;;2.65;;
37955;SDS011;23776;51.592;7.180;2023-07-22T14:20:43;4.22;;;2.42;;
37955;SDS011;23776;51.592;7.180;2023-07-22T14:23:08;5.45;;;2.92;;
37955;SDS011;23776;51.592;7.180;2023-07-22T14:25:34;4.45;;;2.55;;
37955;SDS011;23776;51.592;7.180;2023-07-22T14:28:00;5.10;;;2.70;;
37955;SDS011;23776;51.592;7.180;2023-07-22T14:30:25;3.78;;;2.10;;
37955;SDS011;23776;51.592;7.180;2023-07-22T14:32:51;5.45;;;2.58;;
37955;SDS011;23776;51.592;7.180;2023-07-22T14:35:16;4.80;;;2.90;;
37955;SDS011;23776;51.592;7.180;2023-07-22T14:37:42;7.47;;;3.13;;
37955;SDS011;23776;51.592;7.180;2023-07-22T14:40:08;6.00;;;3.20;;
37955;SDS011;23776;51.592;7.180;2023-07-22T14:42:34;8.10;;;5.05;;
37955;SDS011;23776;51.592;7.180;2023-07-22T14:44:59;6.10;;;2.90;;
37955;SDS011;23776;51.592;7.180;2023-07-22T14:47:25;5.05;;;2.60;;
37955;SDS011;23776;51.592;7.180;2023-07-22T14:49:51;7.82;;;3.75;;